Time;durP1;ratioP1;P1;durP2;ratioP2;P2;SDS_P1;SDS_P2;PMS_P1;PMS_P2;Temp;Humidity;BMP_temperature;BMP_pressure;BME280_temperature;BME280_humidity;BME280_pressure;Samples;Min_cycle;Max_cycle;Signal;HPM_P1;HPM_P2
2023/03/21 00:01:21;;;;;;;22.05;11.60;;;8.10;99.90;;;;;;7406430;19;20259;-77
2023/03/21 00:03:50;;;;;;;22.83;12.18;;;8.00;99.90;;;;;;7404349;19;19926;-77
2023/03/21 00:06:20;;;;;;;21.20;12.95;;;8.00;99.90;;;;;;7405049;19;19922;-77
2023/03/21 00:08:49;;;;;;;25.35;12.32;;;8.40;99.90;;;;;;7404389;19;19926;-77
2023/03/21 00:11:18;;;;;;;23.65;12.15;;;8.00;99.90;;;;;;7408693;19;20263;-77
2023/03/21 00:13:47;;;;;;;20.42;11.98;;;7.90;99.90;;;;;;7402520;19;19918;-77
2023/03/21 00:16:18;;;;;;;21.25;11.38;;;8.10;99.90;;;;;;7404320;19;19922;-77
2023/03/21 00:18:53;;;;;;;21.85;12.45;;;7.90;99.90;;;;;;7407341;19;19931;-77
2023/03/21 00:21:27;;;;;;;19.08;11.57;;;8.00;99.90;;;;;;7405624;19;19918;-77
2023/03/21 00:23:56;;;;;;;21.60;11.93;;;7.90;99.90;;;;;;7403926;19;19947;-77
2023/03/21 00:26:25;;;;;;;20.27;11.45;;;8.00;99.90;;;;;;7405781;19;20307;-77
2023/03/21 00:28:54;;;;;;;23.17;12.15;;;8.00;99.90;;;;;;7403830;19;19914;-77
2023/03/21 00:31:23;;;;;;;21.30;11.50;;;8.00;99.90;;;;;;7406366;19;19923;-77
2023/03/21 00:33:55;;;;;;;21.95;12.70;;;8.10;99.90;;;;;;7406401;19;19918;-77
2023/03/21 00:36:27;;;;;;;20.92;11.05;;;7.80;99.90;;;;;;7402934;19;19943;-77
2023/03/21 00:38:56;;;;;;;21.48;11.60;;;8.00;99.90;;;;;;7403794;19;19919;-77
2023/03/21 00:41:25;;;;;;;19.58;11.13;;;8.00;99.90;;;;;;7402542;19;19929;-77
2023/03/21 00:43:56;;;;;;;20.95;11.68;;;8.00;99.90;;;;;;7405019;19;19921;-78
2023/03/21 00:46:25;;;;;;;19.58;11.23;;;8.00;99.90;;;;;;7404451;19;19931;-77
2023/03/21 00:48:56;;;;;;;18.98;11.18;;;8.00;99.90;;;;;;7403632;19;19942;-77
2023/03/21 00:51:27;;;;;;;19.48;10.80;;;8.00;99.90;;;;;;7405629;19;19919;-77
2023/03/21 00:53:58;;;;;;;20.85;10.70;;;8.10;99.90;;;;;;7403330;19;19954;-77
2023/03/21 00:56:26;;;;;;;19.65;11.07;;;8.20;99.90;;;;;;7403863;19;19925;-78
2023/03/21 00:58:55;;;;;;;19.08;10.75;;;8.10;99.90;;;;;;7402907;19;19925;-77
2023/03/21 01:01:25;;;;;;;18.73;10.35;;;8.00;99.90;;;;;;7402900;19;19938;-77
2023/03/21 01:04:04;;;;;;;22.48;11.00;;;7.90;99.90;;;;;;7404916;19;19926;-77
2023/03/21 01:06:38;;;;;;;21.25;10.23;;;8.00;99.90;;;;;;7403867;19;20178;-76
2023/03/21 01:09:07;;;;;;;19.95;10.75;;;8.10;99.90;;;;;;7404098;19;19919;-77
2023/03/21 01:11:37;;;;;;;17.75;9.98;;;8.00;99.90;;;;;;7402611;19;19925;-77
2023/03/21 01:14:07;;;;;;;19.05;10.50;;;8.00;99.90;;;;;;7402878;19;19914;-77
2023/03/21 01:16:36;;;;;;;21.33;11.13;;;8.20;99.90;;;;;;7405792;19;19921;-77
2023/03/21 01:19:10;;;;;;;18.00;9.82;;;8.10;99.90;;;;;;7402615;19;19918;-77
2023/03/21 01:21:39;;;;;;;19.05;10.60;;;8.10;99.90;;;;;;7402397;19;19911;-77
2023/03/21 01:24:08;;;;;;;16.05;9.05;;;8.10;99.90;;;;;;7401886;19;20038;-77
2023/03/21 01:26:38;;;;;;;17.67;9.98;;;8.10;99.90;;;;;;7402544;19;19922;-77
2023/03/21 01:29:07;;;;;;;19.42;9.98;;;8.00;99.90;;;;;;7401789;19;19942;-77
2023/03/21 01:31:36;;;;;;;19.48;10.13;;;8.10;99.90;;;;;;7404081;19;19920;-77
2023/03/21 01:34:07;;;;;;;20.67;9.93;;;8.10;99.90;;;;;;7404490;19;19914;-77
2023/03/21 01:36:36;;;;;;;18.65;9.57;;;8.10;99.90;;;;;;7401755;19;19915;-77
2023/03/21 01:39:05;;;;;;;19.90;9.55;;;8.10;99.90;;;;;;7401850;19;19918;-77
2023/03/21 01:41:37;;;;;;;19.13;9.82;;;8.10;99.90;;;;;;7402849;19;19929;-77
2023/03/21 01:44:06;;;;;;;25.73;10.57;;;8.10;99.90;;;;;;7401700;19;19915;-77
2023/03/21 01:46:40;;;;;;;32.42;10.70;;;8.10;99.90;;;;;;7401518;19;19974;-77
2023/03/21 01:49:16;;;;;;;24.23;10.75;;;8.20;99.90;;;;;;7403623;19;19923;-77
2023/03/21 01:51:50;;;;;;;24.88;9.98;;;8.60;99.90;;;;;;7404191;19;19942;-78
2023/03/21 01:54:26;;;;;;;27.52;10.75;;;8.20;99.90;;;;;;7401685;19;19918;-78
2023/03/21 01:56:59;;;;;;;23.05;10.10;;;8.10;99.90;;;;;;7404093;19;19982;-77
2023/03/21 01:59:34;;;;;;;27.80;10.27;;;8.10;99.90;;;;;;7401420;19;19918;-77
2023/03/21 02:02:06;;;;;;;31.60;11.93;;;8.10;99.90;;;;;;7403431;19;19925;-77
2023/03/21 02:04:39;;;;;;;28.13;10.90;;;8.30;99.90;;;;;;7402100;19;20552;-77
2023/03/21 02:07:13;;;;;;;33.78;10.10;;;8.20;99.90;;;;;;7401051;19;19991;-77
2023/03/21 02:09:46;;;;;;;30.25;11.15;;;8.30;99.90;;;;;;7401921;19;19915;-77
2023/03/21 02:12:17;;;;;;;23.60;10.13;;;8.20;99.90;;;;;;7405340;19;19922;-77
2023/03/21 02:14:49;;;;;;;28.55;11.52;;;8.10;99.90;;;;;;7402607;19;19921;-78
2023/03/21 02:17:26;;;;;;;29.88;11.02;;;8.20;99.90;;;;;;7401014;19;19922;-78
2023/03/21 02:20:20;;;;;;;30.23;10.15;;;8.30;99.90;;;;;;7400524;19;19921;-78
2023/03/21 02:23:22;;;;;;;28.67;10.93;;;8.30;99.90;;;;;;7402704;19;19922;-78
2023/03/21 02:26:23;;;;;;;23.38;9.48;;;8.20;99.90;;;;;;7402713;19;19914;-78
2023/03/21 02:28:57;;;;;;;25.00;9.98;;;8.30;99.90;;;;;;7401453;19;19974;-78
2023/03/21 02:31:33;;;;;;;26.23;10.13;;;8.30;99.90;;;;;;7403196;19;19929;-78
2023/03/21 02:34:33;;;;;;;25.13;10.05;;;8.20;99.90;;;;;;7401515;19;19919;-78
2023/03/21 02:37:16;;;;;;;24.02;9.48;;;8.30;99.90;;;;;;7408163;19;19923;-78
2023/03/21 02:39:56;;;;;;;23.13;10.02;;;8.30;99.90;;;;;;7411079;19;19923;-78
2023/03/21 02:42:35;;;;;;;24.85;9.55;;;8.30;99.90;;;;;;7406996;19;19923;-78
2023/03/21 02:45:08;;;;;;;24.55;10.38;;;8.40;99.90;;;;;;7406677;19;20265;-79
2023/03/21 02:47:46;;;;;;;20.52;9.18;;;8.30;99.90;;;;;;7408716;19;19918;-78
2023/03/21 02:50:19;;;;;;;23.77;10.18;;;8.30;99.90;;;;;;7411098;19;19915;-78
2023/03/21 02:52:53;;;;;;;21.85;10.05;;;8.40;99.90;;;;;;7407442;19;19923;-78
2023/03/21 02:55:26;;;;;;;20.00;9.73;;;8.30;99.90;;;;;;7406632;19;19992;-78
2023/03/21 02:57:58;;;;;;;21.75;10.27;;;8.30;99.90;;;;;;7404581;19;19914;-78
2023/03/21 03:00:30;;;;;;;22.25;10.15;;;8.30;99.90;;;;;;7409539;19;19926;-78
2023/03/21 03:02:58;;;;;;;;;;;8.40;99.90;;;;;;7411262;19;19929;-78
2023/03/21 03:05:29;;;;;;;18.70;8.50;;;8.40;99.90;;;;;;7406774;19;19918;-78
2023/03/21 03:08:13;;;;;;;16.83;8.10;;;8.40;99.90;;;;;;7407372;19;20011;-78
2023/03/21 03:10:55;;;;;;;18.50;8.00;;;8.40;99.90;;;;;;7406050;19;19915;-78
2023/03/21 03:13:39;;;;;;;16.92;7.88;;;8.30;99.90;;;;;;7405690;19;19926;-77
2023/03/21 03:16:17;;;;;;;16.27;8.27;;;8.40;99.90;;;;;;7407837;19;19923;-78
2023/03/21 03:18:54;;;;;;;14.95;7.75;;;8.30;99.90;;;;;;7409234;19;20340;-78
2023/03/21 03:21:29;;;;;;;19.98;9.27;;;8.40;99.90;;;;;;7406644;19;20412;-78
2023/03/21 03:24:04;;;;;;;18.05;8.20;;;8.40;99.90;;;;;;7407924;19;19958;-78
2023/03/21 03:26:36;;;;;;;17.80;9.05;;;8.30;99.90;;;;;;7408225;19;19919;-78
2023/03/21 03:29:06;;;;;;;;;;;8.40;99.90;;;;;;7408856;19;19919;-78
2023/03/21 03:31:39;;;;;;;17.67;8.73;;;8.30;99.90;;;;;;7407862;19;19923;-78
2023/03/21 03:34:10;;;;;;;18.08;8.25;;;8.40;99.90;;;;;;7405074;19;20344;-78
2023/03/21 03:36:43;;;;;;;18.88;8.60;;;8.40;99.90;;;;;;7405338;19;19922;-77
2023/03/21 03:39:16;;;;;;;17.90;8.25;;;8.30;99.90;;;;;;7408320;19;19915;-77
2023/03/21 03:41:48;;;;;;;17.25;8.55;;;8.40;99.90;;;;;;7403275;19;19923;-78
2023/03/21 03:44:17;;;;;;;18.58;8.85;;;8.40;99.90;;;;;;7404955;19;19919;-78
2023/03/21 03:46:54;;;;;;;16.77;8.23;;;8.50;99.90;;;;;;7406288;19;19935;-78
2023/03/21 03:49:26;;;;;;;17.42;7.90;;;8.30;99.90;;;;;;7405784;19;19922;-78
2023/03/21 03:52:00;;;;;;;15.80;7.90;;;8.40;99.90;;;;;;7405288;19;19918;-78
2023/03/21 03:54:35;;;;;;;15.10;7.60;;;8.40;99.90;;;;;;7404981;19;20336;-78
2023/03/21 03:57:05;;;;;;;14.60;8.02;;;8.50;99.90;;;;;;7405756;19;19919;-78
2023/03/21 03:59:36;;;;;;;17.70;7.50;;;8.40;99.90;;;;;;7406939;19;19929;-78
2023/03/21 04:02:05;;;;;;;14.00;8.15;;;8.50;99.90;;;;;;7405434;19;19943;-77
2023/03/21 04:04:35;;;;;;;16.63;7.90;;;8.40;99.90;;;;;;7408024;19;19922;-78
2023/03/21 04:07:05;;;;;;;15.20;8.05;;;8.40;99.90;;;;;;7407441;19;19923;-77
2023/03/21 04:09:36;;;;;;;17.50;8.25;;;8.40;99.90;;;;;;7408851;19;19952;-78
2023/03/21 04:12:06;;;;;;;14.82;7.75;;;8.40;99.90;;;;;;7407004;19;20483;-78
2023/03/21 04:14:34;;;;;;;16.30;8.02;;;8.50;99.90;;;;;;7404501;19;19918;-79
2023/03/21 04:17:04;;;;;;;14.60;7.90;;;8.50;99.90;;;;;;7404259;19;19940;-79
2023/03/21 04:19:33;;;;;;;15.10;7.68;;;8.40;99.90;;;;;;7407964;19;19923;-78
2023/03/21 04:22:02;;;;;;;15.13;7.32;;;8.40;99.90;;;;;;7404216;19;19922;-80
2023/03/21 04:24:32;;;;;;;18.17;7.88;;;8.50;99.90;;;;;;7403830;19;19918;-79
2023/03/21 04:27:04;;;;;;;14.82;7.90;;;8.60;99.90;;;;;;7407180;19;19926;-79
2023/03/21 04:29:33;;;;;;;;;;;8.60;99.90;;;;;;7407985;19;19918;-78
2023/03/21 04:32:02;;;;;;;14.50;7.40;;;8.40;99.90;;;;;;7404979;19;19942;-78
2023/03/21 04:34:31;;;;;;;14.18;7.40;;;8.40;99.90;;;;;;7403804;19;19922;-79
2023/03/21 04:37:00;;;;;;;15.45;7.95;;;8.50;99.90;;;;;;7405797;19;20330;-78
2023/03/21 04:39:29;;;;;;;16.27;8.20;;;8.40;99.90;;;;;;7407141;19;19922;-78
2023/03/21 04:41:58;;;;;;;16.38;7.85;;;8.50;99.90;;;;;;7402473;19;19910;-78
2023/03/21 04:44:29;;;;;;;20.38;8.25;;;8.40;99.90;;;;;;7404746;19;20731;-78
2023/03/21 04:46:58;;;;;;;19.15;8.60;;;8.40;99.90;;;;;;7403163;19;20343;-78
2023/03/21 04:49:27;;;;;;;17.90;8.63;;;8.30;99.90;;;;;;7405067;19;19918;-78
2023/03/21 04:51:56;;;;;;;16.88;8.48;;;8.40;99.90;;;;;;7405434;19;19923;-78
2023/03/21 04:54:25;;;;;;;16.58;7.63;;;8.40;99.90;;;;;;7404661;19;19918;-78
2023/03/21 04:56:54;;;;;;;16.90;8.63;;;8.40;99.90;;;;;;7405389;19;19947;-78
2023/03/21 04:59:23;;;;;;;15.43;7.60;;;8.40;99.90;;;;;;7405001;19;19927;-78
2023/03/21 05:01:55;;;;;;;15.77;7.97;;;8.30;99.90;;;;;;7406887;19;19926;-78
2023/03/21 05:04:24;;;;;;;15.07;7.75;;;8.40;99.90;;;;;;7404231;19;19943;-78
2023/03/21 05:06:53;;;;;;;15.07;7.55;;;8.30;99.90;;;;;;7402204;19;20352;-78
2023/03/21 05:09:23;;;;;;;14.90;7.57;;;8.50;99.90;;;;;;7401215;19;20500;-78
2023/03/21 05:11:52;;;;;;;16.55;7.70;;;8.40;99.90;;;;;;7404413;19;19922;-78
2023/03/21 05:14:23;;;;;;;15.57;7.20;;;8.40;99.90;;;;;;7403791;19;19915;-78
2023/03/21 05:16:56;;;;;;;14.10;7.15;;;8.40;99.90;;;;;;7402620;19;19923;-78
2023/03/21 05:19:33;;;;;;;13.35;6.95;;;8.40;99.90;;;;;;7402347;19;19943;-78
2023/03/21 05:22:04;;;;;;;14.32;6.53;;;8.30;99.90;;;;;;7406631;19;19926;-78
2023/03/21 05:24:36;;;;;;;11.80;6.28;;;8.40;99.90;;;;;;7401819;19;19943;-77
2023/03/21 05:27:05;;;;;;;12.43;6.35;;;8.30;99.90;;;;;;7405172;19;19918;-78
2023/03/21 05:29:35;;;;;;;11.93;6.50;;;8.40;99.90;;;;;;7403645;19;20348;-78
2023/03/21 05:32:07;;;;;;;15.02;6.22;;;8.30;99.90;;;;;;7403852;19;19927;-78
2023/03/21 05:34:35;;;;;;;;;;;8.20;99.90;;;;;;7404617;19;19915;-78
2023/03/21 05:37:04;;;;;;;14.63;7.47;;;8.30;99.90;;;;;;7404639;19;20375;-78
2023/03/21 05:39:33;;;;;;;11.80;6.20;;;8.40;99.90;;;;;;7401495;19;19927;-78
2023/03/21 05:42:02;;;;;;;13.15;6.45;;;8.20;99.90;;;;;;7400456;19;20255;-78
2023/03/21 05:44:31;;;;;;;10.25;5.95;;;8.30;99.90;;;;;;7401682;19;20337;-78
2023/03/21 05:47:00;;;;;;;13.75;7.38;;;8.30;99.90;;;;;;7401707;19;19923;-78
2023/03/21 05:49:31;;;;;;;12.93;6.90;;;8.30;99.90;;;;;;7400332;19;19941;-78
2023/03/21 05:52:00;;;;;;;11.82;6.70;;;8.30;99.90;;;;;;7401617;19;19923;-78
2023/03/21 05:54:29;;;;;;;14.18;6.85;;;8.30;99.90;;;;;;7401387;19;19918;-78
2023/03/21 05:56:58;;;;;;;14.23;7.03;;;8.30;99.90;;;;;;7400599;19;19923;-78
2023/03/21 05:59:28;;;;;;;14.07;6.57;;;8.30;99.90;;;;;;7403016;19;19919;-78
2023/03/21 06:01:58;;;;;;;13.02;6.85;;;8.20;99.90;;;;;;7405039;19;19919;-78
2023/03/21 06:04:27;;;;;;;15.73;7.03;;;8.20;99.90;;;;;;7401504;19;19937;-78
2023/03/21 06:06:58;;;;;;;12.18;6.53;;;8.30;99.90;;;;;;7400746;19;19918;-78
2023/03/21 06:09:27;;;;;;;11.30;6.65;;;8.30;99.90;;;;;;7399199;19;19921;-78
2023/03/21 06:11:58;;;;;;;16.00;7.30;;;8.30;99.90;;;;;;7398404;19;19922;-78
2023/03/21 06:14:27;;;;;;;11.38;6.05;;;8.30;99.90;;;;;;7400556;19;19918;-78
2023/03/21 06:16:57;;;;;;;15.90;6.85;;;8.30;99.90;;;;;;7400985;19;19922;-78
2023/03/21 06:19:26;;;;;;;12.23;6.57;;;8.40;99.90;;;;;;7400705;19;19946;-78
2023/03/21 06:21:58;;;;;;;12.27;6.60;;;8.50;99.90;;;;;;7400772;19;19922;-78
2023/03/21 06:24:27;;;;;;;15.48;7.63;;;8.40;99.90;;;;;;7400428;19;19923;-78
2023/03/21 06:26:56;;;;;;;11.45;6.60;;;8.50;99.90;;;;;;7402009;19;19974;-77
2023/03/21 06:29:25;;;;;;;14.63;7.55;;;8.40;99.90;;;;;;7400633;19;19914;-78
2023/03/21 06:31:54;;;;;;;12.68;6.93;;;8.40;99.90;;;;;;7401850;19;20221;-78
2023/03/21 06:34:23;;;;;;;13.75;7.05;;;8.40;99.90;;;;;;7401256;19;19919;-78
2023/03/21 06:36:53;;;;;;;12.27;6.90;;;8.50;99.90;;;;;;7402391;19;19930;-77
2023/03/21 06:39:25;;;;;;;11.98;7.07;;;8.50;99.90;;;;;;7402101;19;19930;-77
2023/03/21 06:41:54;;;;;;;12.30;6.68;;;8.40;99.90;;;;;;7398537;19;20010;-78
2023/03/21 06:44:23;;;;;;;13.20;7.32;;;8.40;99.90;;;;;;7399631;19;19922;-76
2023/03/21 06:46:52;;;;;;;12.38;7.25;;;8.50;99.90;;;;;;7401373;19;19947;-78
2023/03/21 06:49:22;;;;;;;13.52;7.57;;;8.30;99.90;;;;;;7397786;19;19919;-78
2023/03/21 06:51:50;;;;;;;12.93;7.68;;;8.40;99.90;;;;;;7400575;19;19927;-78
2023/03/21 06:54:20;;;;;;;14.40;8.02;;;8.40;99.90;;;;;;7398331;19;19923;-78
2023/03/21 06:56:53;;;;;;;11.75;6.70;;;8.40;99.90;;;;;;7401539;19;19929;-77
2023/03/21 06:59:22;;;;;;;14.73;8.32;;;8.40;99.90;;;;;;7399504;19;20364;-78
2023/03/21 07:01:51;;;;;;;13.05;8.10;;;8.40;99.90;;;;;;7400508;19;19992;-78
2023/03/21 07:04:20;;;;;;;13.70;8.07;;;8.40;99.90;;;;;;7401053;19;19927;-78
2023/03/21 07:06:49;;;;;;;14.75;8.27;;;8.40;99.90;;;;;;7400237;19;19926;-78
2023/03/21 07:09:23;;;;;;;15.32;8.35;;;8.40;99.90;;;;;;7398356;19;20320;-78
2023/03/21 07:11:54;;;;;;;14.25;7.88;;;8.40;99.90;;;;;;7400927;19;19925;-77
2023/03/21 07:14:23;;;;;;;17.08;8.13;;;8.60;99.90;;;;;;7399211;19;19918;-78
2023/03/21 07:16:52;;;;;;;15.25;8.38;;;8.40;99.90;;;;;;7400560;19;19918;-78
2023/03/21 07:19:21;;;;;;;13.98;7.43;;;8.40;99.90;;;;;;7401330;19;20305;-77
2023/03/21 07:21:50;;;;;;;14.35;8.00;;;8.40;99.90;;;;;;7400080;19;19917;-78
2023/03/21 07:24:19;;;;;;;13.85;7.40;;;8.50;99.90;;;;;;7405332;19;20367;-77
2023/03/21 07:26:48;;;;;;;15.68;8.23;;;8.40;99.90;;;;;;7406711;19;19943;-78
2023/03/21 07:29:21;;;;;;;14.07;7.57;;;8.50;99.90;;;;;;7404138;19;19919;-78
2023/03/21 07:31:50;;;;;;;14.23;7.28;;;8.40;99.90;;;;;;7405522;19;19923;-79
2023/03/21 07:34:19;;;;;;;15.57;8.57;;;8.50;99.90;;;;;;7406200;19;19923;-77
2023/03/21 07:36:48;;;;;;;11.75;6.03;;;8.50;99.90;;;;;;7406799;19;19918;-77
2023/03/21 07:39:19;;;;;;;12.50;7.47;;;8.50;99.90;;;;;;7409030;19;19929;-81
2023/03/21 07:41:48;;;;;;;13.30;7.15;;;8.50;99.90;;;;;;7404130;19;19996;-82
2023/03/21 07:44:19;;;;;;;14.30;7.78;;;8.40;99.90;;;;;;7409804;19;19922;-80
2023/03/21 07:46:49;;;;;;;12.85;7.60;;;8.40;99.90;;;;;;7408377;19;19915;-82
2023/03/21 07:49:17;;;;;;;13.65;7.78;;;8.50;99.90;;;;;;7407855;19;19921;-79
2023/03/21 07:51:46;;;;;;;13.45;7.57;;;8.50;99.90;;;;;;7404616;19;19923;-79
2023/03/21 07:54:18;;;;;;;12.68;7.20;;;8.60;99.90;;;;;;7405656;19;19922;-79
2023/03/21 07:56:47;;;;;;;12.95;7.22;;;8.60;99.90;;;;;;7405240;19;19926;-79
2023/03/21 07:59:15;;;;;;;15.65;7.47;;;8.50;99.90;;;;;;7406984;19;20298;-76
2023/03/21 08:01:47;;;;;;;12.75;7.10;;;8.60;99.90;;;;;;7407899;19;19922;-85
2023/03/21 08:04:16;;;;;;;14.38;6.90;;;8.50;99.90;;;;;;7404995;19;20396;-81
2023/03/21 08:06:45;;;;;;;11.77;6.72;;;8.60;99.90;;;;;;7407004;19;19933;-81
2023/03/21 08:09:14;;;;;;;12.23;7.43;;;8.60;99.90;;;;;;7403205;19;19914;-81
2023/03/21 08:11:43;;;;;;;11.32;6.68;;;8.60;99.90;;;;;;7404033;19;19918;-81
2023/03/21 08:14:12;;;;;;;13.65;6.35;;;8.70;99.90;;;;;;7404449;19;19914;-81
2023/03/21 08:16:40;;;;;;;10.30;6.20;;;8.80;99.90;;;;;;7407416;19;19930;-81
2023/03/21 08:19:12;;;;;;;10.95;6.32;;;8.80;99.90;;;;;;7405310;19;20594;-84
2023/03/21 08:21:41;;;;;;;10.88;5.70;;;8.80;99.90;;;;;;7404106;19;20144;-82
2023/03/21 08:24:11;;;;;;;8.25;5.50;;;8.70;99.90;;;;;;7403506;19;19925;-82
2023/03/21 08:26:40;;;;;;;9.20;5.20;;;8.80;99.90;;;;;;7407602;19;20251;-82
2023/03/21 08:29:08;;;;;;;9.20;4.68;;;9.40;99.90;;;;;;7403371;19;19934;-81
2023/03/21 08:31:37;;;;;;;8.02;5.25;;;8.80;99.90;;;;;;7407531;19;19918;-80
2023/03/21 08:34:06;;;;;;;9.43;4.80;;;8.80;99.90;;;;;;7401402;19;19911;-83
2023/03/21 08:36:38;;;;;;;7.22;4.13;;;8.80;99.90;;;;;;7406305;19;19926;-82
2023/03/21 08:39:08;;;;;;;7.38;4.68;;;8.90;99.90;;;;;;7403786;19;19926;-81
2023/03/21 08:41:39;;;;;;;7.65;3.95;;;8.80;99.90;;;;;;7402949;19;20323;-83
2023/03/21 08:44:08;;;;;;;8.27;3.83;;;8.80;99.90;;;;;;7405790;19;19915;-83
2023/03/21 08:46:37;;;;;;;6.72;4.50;;;8.80;99.90;;;;;;7407762;19;19930;-78
2023/03/21 08:49:06;;;;;;;5.68;3.92;;;8.90;99.90;;;;;;7403363;19;19918;-78
2023/03/21 08:51:40;;;;;;;6.63;4.18;;;8.90;99.90;;;;;;7402941;19;20407;-76
2023/03/21 08:54:09;;;;;;;6.70;3.97;;;8.80;99.90;;;;;;7404627;19;19933;-78
2023/03/21 08:56:37;;;;;;;6.38;3.90;;;9.00;99.90;;;;;;7405905;19;19929;-78
2023/03/21 08:59:08;;;;;;;6.38;3.75;;;8.90;99.90;;;;;;7403108;19;19918;-77
2023/03/21 09:01:37;;;;;;;7.35;4.35;;;9.00;99.90;;;;;;7404419;19;19922;-79
2023/03/21 09:04:09;;;;;;;5.75;3.67;;;8.90;99.90;;;;;;7404638;19;19929;-75
2023/03/21 09:06:47;;;;;;;5.82;3.85;;;8.90;99.90;;;;;;7405624;19;19922;-82
2023/03/21 09:09:15;;;;;;;5.93;3.58;;;9.10;99.90;;;;;;7406392;19;20313;-77
2023/03/21 09:11:45;;;;;;;5.35;3.78;;;8.90;99.90;;;;;;7403606;19;19923;-77
2023/03/21 09:14:14;;;;;;;7.13;4.43;;;8.90;99.90;;;;;;7406404;19;19926;-74
2023/03/21 09:16:43;;;;;;;6.03;3.85;;;8.70;99.90;;;;;;7406194;19;19925;-76
2023/03/21 09:19:12;;;;;;;7.68;4.43;;;8.80;99.90;;;;;;7405768;19;19981;-77
2023/03/21 09:21:43;;;;;;;7.18;4.28;;;8.70;99.90;;;;;;7402059;19;19922;-76
2023/03/21 09:24:14;;;;;;;7.57;4.57;;;8.80;99.90;;;;;;7402650;19;19933;-76
2023/03/21 09:26:43;;;;;;;6.90;4.55;;;10.80;99.90;;;;;;7404998;19;19914;-75
2023/03/21 09:29:14;;;;;;;8.95;4.63;;;8.70;99.90;;;;;;7396856;19;19930;-79
2023/03/21 09:31:43;;;;;;;8.88;5.10;;;8.90;99.90;;;;;;7401621;19;19938;-76
2023/03/21 09:34:13;;;;;;;7.13;4.40;;;8.90;99.90;;;;;;7403218;19;20251;-77
2023/03/21 09:36:47;;;;;;;9.05;5.15;;;8.80;99.90;;;;;;7401108;19;19925;-78
2023/03/21 09:39:16;;;;;;;8.68;4.95;;;8.90;99.90;;;;;;7401705;19;19923;-79
2023/03/21 09:42:13;;;;;;;8.52;4.40;;;8.90;99.90;;;;;;7402674;19;19929;-77
2023/03/21 09:44:54;;;;;;;7.00;4.18;;;8.90;99.90;;;;;;7398650;19;20040;-80
2023/03/21 09:47:27;;;;;;;10.00;5.03;;;8.90;99.90;;;;;;7402997;19;19930;-77
2023/03/21 09:50:00;;;;;;;5.80;4.03;;;9.00;99.90;;;;;;7402809;19;19935;-78
2023/03/21 09:52:38;;;;;;;8.10;4.97;;;8.90;99.90;;;;;;7398886;19;19919;-81
2023/03/21 09:55:17;;;;;;;7.45;4.72;;;9.00;99.90;;;;;;7396343;19;20259;-77
2023/03/21 09:57:49;;;;;;;7.20;4.97;;;8.80;99.90;;;;;;7390269;19;19923;-78
2023/03/21 10:00:24;;;;;;;8.65;5.03;;;8.90;99.90;;;;;;7397370;19;20350;-76
2023/03/21 10:02:58;;;;;;;8.38;4.97;;;9.00;99.90;;;;;;7395823;19;19986;-78
2023/03/21 10:05:29;;;;;;;11.38;5.63;;;9.10;99.90;;;;;;7401672;19;19919;-78
2023/03/21 10:08:06;;;;;;;9.73;5.30;;;8.90;99.90;;;;;;7394694;19;19922;-79
2023/03/21 10:10:39;;;;;;;9.52;4.80;;;9.00;99.90;;;;;;7398170;19;20402;-78
2023/03/21 10:13:15;;;;;;;7.60;4.18;;;9.00;99.90;;;;;;7397733;19;19929;-79
2023/03/21 10:15:44;;;;;;;7.15;4.45;;;9.00;99.90;;;;;;7396196;19;19918;-77
2023/03/21 10:18:20;;;;;;;7.88;4.85;;;9.00;99.90;;;;;;7401320;19;19941;-77
2023/03/21 10:20:50;;;;;;;8.32;5.15;;;9.00;99.90;;;;;;7392851;19;19923;-78
2023/03/21 10:23:24;;;;;;;9.63;5.40;;;9.00;99.90;;;;;;7400042;19;19922;-77
2023/03/21 10:25:57;;;;;;;10.60;5.82;;;9.10;99.90;;;;;;7386429;19;19930;-80
2023/03/21 10:28:30;;;;;;;11.90;5.78;;;8.90;99.90;;;;;;7399383;19;19942;-77
2023/03/21 10:31:03;;;;;;;9.40;5.65;;;8.90;99.90;;;;;;7400007;19;19923;-78
2023/03/21 10:33:37;;;;;;;8.23;5.30;;;8.80;99.90;;;;;;7406685;19;19946;-77
2023/03/21 10:36:10;;;;;;;14.13;6.82;;;8.80;99.90;;;;;;7394032;19;19925;-76
2023/03/21 10:38:47;;;;;;;11.50;6.35;;;8.80;99.90;;;;;;7401070;19;19934;-74
2023/03/21 10:41:15;;;;;;;9.65;6.03;;;8.80;99.90;;;;;;7401533;19;19918;-74
2023/03/21 10:43:47;;;;;;;12.13;6.55;;;8.80;99.90;;;;;;7399719;19;20275;-74
2023/03/21 10:46:19;;;;;;;11.57;6.25;;;8.80;99.90;;;;;;7399472;19;19919;-74
2023/03/21 10:48:53;;;;;;;12.55;6.15;;;8.90;99.90;;;;;;7399788;19;19952;-73
2023/03/21 10:51:27;;;;;;;15.85;7.32;;;8.90;99.90;;;;;;7398542;19;19986;-73
2023/03/21 10:54:02;;;;;;;13.60;7.65;;;8.90;99.90;;;;;;7402575;19;19926;-73
2023/03/21 10:56:33;;;;;;;13.65;6.97;;;8.90;99.90;;;;;;7398885;19;19918;-74
2023/03/21 10:59:03;;;;;;;15.77;7.90;;;8.80;99.90;;;;;;7406272;19;19923;-74
2023/03/21 11:01:37;;;;;;;13.25;7.35;;;8.90;99.90;;;;;;7406009;19;20342;-73
2023/03/21 11:04:11;;;;;;;14.70;7.70;;;8.80;99.90;;;;;;7405986;19;19933;-74
2023/03/21 11:06:42;;;;;;;14.60;7.32;;;8.80;99.90;;;;;;7407476;19;19934;-74
2023/03/21 11:09:18;;;;;;;12.40;6.68;;;8.90;99.90;;;;;;7406301;19;19943;-73
2023/03/21 11:11:53;;;;;;;15.57;6.95;;;8.90;99.90;;;;;;7402857;19;19931;-74
2023/03/21 11:14:35;;;;;;;16.85;7.22;;;8.90;99.90;;;;;;7406323;19;19919;-73
2023/03/21 11:17:20;;;;;;;11.80;6.43;;;8.80;99.90;;;;;;7405856;19;20365;-74
2023/03/21 11:19:50;;;;;;;14.63;7.38;;;8.90;99.90;;;;;;7406923;19;20257;-74
2023/03/21 11:22:22;;;;;;;12.45;5.68;;;8.90;99.90;;;;;;7404666;19;20357;-74
2023/03/21 11:24:58;;;;;;;12.95;6.20;;;8.90;99.90;;;;;;7408346;19;20275;-74
2023/03/21 11:27:29;;;;;;;13.68;6.25;;;8.90;99.90;;;;;;7409670;19;19978;-75
2023/03/21 11:30:02;;;;;;;10.88;5.95;;;9.00;99.90;;;;;;7404839;19;19919;-74
2023/03/21 11:32:35;;;;;;;11.23;4.93;;;8.90;99.90;;;;;;7405059;19;19943;-74
2023/03/21 11:35:08;;;;;;;12.98;5.93;;;8.80;99.90;;;;;;7405330;19;19922;-74
2023/03/21 11:37:45;;;;;;;11.13;6.45;;;9.00;99.90;;;;;;7406841;19;20395;-74
2023/03/21 11:40:25;;;;;;;12.20;5.53;;;8.90;99.90;;;;;;7404233;19;19939;-75
2023/03/21 11:42:56;;;;;;;11.77;6.65;;;9.10;99.90;;;;;;7406496;19;19925;-75
2023/03/21 11:45:27;;;;;;;12.48;6.55;;;9.20;99.90;;;;;;7406769;19;19918;-74
2023/03/21 11:47:59;;;;;;;11.68;6.22;;;9.30;99.90;;;;;;7407627;19;19930;-75
2023/03/21 11:50:33;;;;;;;13.05;6.25;;;9.20;99.90;;;;;;7404849;19;19926;-75
2023/03/21 11:53:17;;;;;;;11.98;6.00;;;9.10;99.90;;;;;;7408149;19;19922;-75
2023/03/21 11:55:59;;;;;;;13.00;5.95;;;9.20;99.90;;;;;;7406687;19;19982;-75
2023/03/21 11:58:39;;;;;;;11.73;5.72;;;9.40;99.90;;;;;;7407996;19;19922;-75
2023/03/21 12:01:18;;;;;;;11.20;5.18;;;9.30;99.90;;;;;;7406161;19;19922;-75
2023/03/21 12:04:09;;;;;;;11.27;6.20;;;8.20;99.90;;;;;;7405156;19;20306;-76
2023/03/21 12:06:41;;;;;;;11.85;5.65;;;9.60;99.90;;;;;;7404123;19;19919;-75
2023/03/21 12:09:24;;;;;;;10.25;5.93;;;9.60;99.90;;;;;;7404289;19;19974;-76
2023/03/21 12:12:19;;;;;;;13.30;6.05;;;9.70;99.90;;;;;;7405291;19;19926;-76
2023/03/21 12:15:00;;;;;;;11.63;5.88;;;9.80;99.90;;;;;;7406967;19;19918;-76
2023/03/21 12:17:42;;;;;;;10.85;6.80;;;9.70;99.90;;;;;;7404027;19;19994;-75
2023/03/21 12:20:36;;;;;;;12.32;6.15;;;9.70;99.90;;;;;;7403654;19;19919;-75
2023/03/21 12:23:37;;;;;;;12.75;6.40;;;9.70;99.90;;;;;;7403260;19;19980;-75
2023/03/21 12:26:22;;;;;;;11.32;6.13;;;9.80;99.90;;;;;;7402375;19;19918;-76
2023/03/21 12:29:20;;;;;;;11.52;5.93;;;9.90;99.90;;;;;;7403646;19;20304;-76
2023/03/21 12:32:01;;;;;;;8.55;5.43;;;9.80;99.90;;;;;;7403321;19;20458;-76
2023/03/21 12:34:54;;;;;;;9.98;5.88;;;9.90;99.90;;;;;;7403507;19;19926;-76
2023/03/21 12:37:33;;;;;;;12.50;6.00;;;10.10;99.90;;;;;;7405971;19;20312;-75
2023/03/21 12:40:11;;;;;;;10.95;5.47;;;9.90;99.90;;;;;;7399776;19;20297;-76
2023/03/21 12:42:55;;;;;;;;;;;10.10;99.90;;;;;;7407799;19;19934;-77
2023/03/21 12:45:30;;;;;;;9.20;4.47;;;10.00;99.90;;;;;;7404915;19;20281;-76
2023/03/21 12:48:05;;;;;;;9.68;5.35;;;10.10;99.90;;;;;;7406101;19;20249;-76
2023/03/21 12:50:36;;;;;;;8.55;5.25;;;10.10;99.90;;;;;;7403990;19;19922;-76
2023/03/21 12:53:15;;;;;;;9.63;5.43;;;10.00;99.90;;;;;;7405294;19;19929;-75
2023/03/21 12:55:44;;;;;;;8.50;5.05;;;10.10;99.90;;;;;;7406133;19;20365;-76
2023/03/21 12:58:18;;;;;;;10.55;5.70;;;10.00;99.90;;;;;;7406252;19;20267;-76
2023/03/21 13:00:55;;;;;;;8.13;4.50;;;10.10;99.90;;;;;;7405065;19;19925;-76
2023/03/21 13:03:30;;;;;;;12.43;4.53;;;10.10;99.90;;;;;;7405005;19;19923;-76
2023/03/21 13:06:02;;;;;;;7.97;4.20;;;10.10;99.90;;;;;;7403178;19;20280;-76
2023/03/21 13:08:32;;;;;;;;;;;10.00;99.90;;;;;;7407008;19;20287;-76
2023/03/21 13:11:03;;;;;;;7.32;3.92;;;10.00;99.90;;;;;;7404224;19;19926;-77
2023/03/21 13:13:36;;;;;;;9.73;4.80;;;10.00;99.90;;;;;;7405711;19;19922;-75
2023/03/21 13:16:14;;;;;;;7.93;4.07;;;10.00;99.90;;;;;;7405486;19;19922;-76